Terminal Aerodrome Forecast
Issued by NWS Newport/Morehead City, NC

Home | Current Version | Previous Version | Text Only | Print | Product List | Glossary Off
Versions: 1 2 3 4 5 6 7 8 9 10 11 12 13 14 15 16 17 18 19 20

000
FTUS42 KMHX 240005 AAA
TAFEWN
TAF AMD
KEWN 240005Z 2400/2424 21006KT P6SM VCTS BKN050CB
      TEMPO 2401/2403 3SM TSRA OVC025CB
     FM240400 22005KT P6SM BKN050
     FM240800 VRB03KT P6SM SCT007 BKN020
     FM241300 07009KT P6SM SCT040=

USA.gov is the U.S. government's official web portal to all federal, state and local government web resources and services.